sensor_id;sensor_type;location;lat;lon;timestamp;pressure;altitude;pressure_sealevel;temperature;humidity
7268;BME280;3675;43.276;27.962;2024-01-06T00:00:08;98060.31;;;9.42;59.60
7268;BME280;3675;43.276;27.962;2024-01-06T00:02:40;98066.41;;;9.39;59.94
7268;BME280;3675;43.276;27.962;2024-01-06T00:05:12;98070.03;;;9.35;59.91
7268;BME280;3675;43.276;27.962;2024-01-06T00:07:44;98064.81;;;9.37;60.30
7268;BME280;3675;43.276;27.962;2024-01-06T00:10:16;98055.25;;;9.39;60.19
7268;BME280;3675;43.276;27.962;2024-01-06T00:12:48;98069.09;;;9.38;60.02
7268;BME280;3675;43.276;27.962;2024-01-06T00:15:24;98063.06;;;9.37;60.09
7268;BME280;3675;43.276;27.962;2024-01-06T00:17:56;98049.56;;;9.31;60.52
7268;BME280;3675;43.276;27.962;2024-01-06T00:20:29;98050.41;;;9.31;60.51
7268;BME280;3675;43.276;27.962;2024-01-06T00:23:01;98065.00;;;9.32;60.48
7268;BME280;3675;43.276;27.962;2024-01-06T00:25:32;98060.69;;;9.33;60.45
7268;BME280;3675;43.276;27.962;2024-01-06T00:28:04;98056.22;;;9.36;60.37
7268;BME280;3675;43.276;27.962;2024-01-06T00:30:39;98048.53;;;9.35;60.26
7268;BME280;3675;43.276;27.962;2024-01-06T00:33:10;98055.44;;;9.34;60.35
7268;BME280;3675;43.276;27.962;2024-01-06T00:35:42;98060.69;;;9.33;60.21
7268;BME280;3675;43.276;27.962;2024-01-06T00:38:14;98058.81;;;9.36;60.13
7268;BME280;3675;43.276;27.962;2024-01-06T00:40:45;98041.69;;;9.34;60.28
7268;BME280;3675;43.276;27.962;2024-01-06T00:43:18;98044.09;;;9.38;60.29
7268;BME280;3675;43.276;27.962;2024-01-06T00:45:52;98031.47;;;9.32;60.86
7268;BME280;3675;43.276;27.962;2024-01-06T00:48:24;98024.59;;;9.31;60.66
7268;BME280;3675;43.276;27.962;2024-01-06T00:50:56;98018.66;;;9.29;60.59
7268;BME280;3675;43.276;27.962;2024-01-06T00:53:28;98015.84;;;9.35;60.57
7268;BME280;3675;43.276;27.962;2024-01-06T00:56:00;98021.91;;;9.34;60.10
7268;BME280;3675;43.276;27.962;2024-01-06T00:58:31;98010.88;;;9.31;60.23
7268;BME280;3675;43.276;27.962;2024-01-06T01:01:05;98005.72;;;9.31;60.13
7268;BME280;3675;43.276;27.962;2024-01-06T01:03:37;98009.91;;;9.33;59.77
7268;BME280;3675;43.276;27.962;2024-01-06T01:06:08;98012.41;;;9.35;59.27
7268;BME280;3675;43.276;27.962;2024-01-06T01:08:40;98011.47;;;9.37;58.73
7268;BME280;3675;43.276;27.962;2024-01-06T01:11:11;98009.72;;;9.38;58.53
7268;BME280;3675;43.276;27.962;2024-01-06T01:13:43;98005.38;;;9.38;58.25
7268;BME280;3675;43.276;27.962;2024-01-06T01:16:18;97999.31;;;9.39;58.23
7268;BME280;3675;43.276;27.962;2024-01-06T01:18:49;97995.00;;;9.40;57.85
7268;BME280;3675;43.276;27.962;2024-01-06T01:21:21;97990.69;;;9.40;58.30
7268;BME280;3675;43.276;27.962;2024-01-06T01:23:53;97998.63;;;9.36;58.32
7268;BME280;3675;43.276;27.962;2024-01-06T01:26:25;98007.16;;;9.38;58.15
7268;BME280;3675;43.276;27.962;2024-01-06T01:28:57;97997.81;;;9.34;58.72
7268;BME280;3675;43.276;27.962;2024-01-06T01:31:31;97993.59;;;9.33;58.50
7268;BME280;3675;43.276;27.962;2024-01-06T01:34:03;97985.97;;;9.30;58.72
7268;BME280;3675;43.276;27.962;2024-01-06T01:36:35;97980.09;;;9.26;59.00
7268;BME280;3675;43.276;27.962;2024-01-06T01:39:07;97982.81;;;9.23;59.33
7268;BME280;3675;43.276;27.962;2024-01-06T01:41:39;97974.22;;;9.23;59.14
7268;BME280;3675;43.276;27.962;2024-01-06T01:44:12;97972.72;;;9.17;59.56
7268;BME280;3675;43.276;27.962;2024-01-06T01:46:46;97957.34;;;9.16;59.66
7268;BME280;3675;43.276;27.962;2024-01-06T01:49:18;97950.50;;;9.15;60.17
7268;BME280;3675;43.276;27.962;2024-01-06T01:51:50;97943.91;;;9.08;60.16
7268;BME280;3675;43.276;27.962;2024-01-06T01:54:21;97945.66;;;9.07;59.95
7268;BME280;3675;43.276;27.962;2024-01-06T01:56:53;97961.94;;;9.08;60.06
7268;BME280;3675;43.276;27.962;2024-01-06T01:59:25;97962.78;;;9.08;59.62
7268;BME280;3675;43.276;27.962;2024-01-06T02:02:00;97956.75;;;9.09;59.92
7268;BME280;3675;43.276;27.962;2024-01-06T02:04:33;97945.19;;;8.97;59.89
7268;BME280;3675;43.276;27.962;2024-01-06T02:07:04;97933.91;;;9.00;59.66
7268;BME280;3675;43.276;27.962;2024-01-06T02:09:36;97934.97;;;8.94;59.83
7268;BME280;3675;43.276;27.962;2024-01-06T02:12:08;97931.69;;;8.91;60.24
7268;BME280;3675;43.276;27.962;2024-01-06T02:14:42;97937.69;;;8.91;60.20
7268;BME280;3675;43.276;27.962;2024-01-06T02:17:16;97936.72;;;8.94;60.31
7268;BME280;3675;43.276;27.962;2024-01-06T02:19:47;97935.06;;;8.93;60.35
7268;BME280;3675;43.276;27.962;2024-01-06T02:22:21;97939.50;;;8.89;60.22
7268;BME280;3675;43.276;27.962;2024-01-06T02:24:53;97941.31;;;8.87;60.62
7268;BME280;3675;43.276;27.962;2024-01-06T02:27:25;97938.84;;;8.84;60.71
7268;BME280;3675;43.276;27.962;2024-01-06T02:29:56;97938.78;;;8.86;60.82
7268;BME280;3675;43.276;27.962;2024-01-06T02:32:27;97934.53;;;8.85;60.78
7268;BME280;3675;43.276;27.962;2024-01-06T02:34:58;97933.88;;;8.80;61.21
7268;BME280;3675;43.276;27.962;2024-01-06T02:37:32;97926.91;;;8.82;61.22
7268;BME280;3675;43.276;27.962;2024-01-06T02:40:03;97917.56;;;8.79;61.66
7268;BME280;3675;43.276;27.962;2024-01-06T02:42:32;97911.09;;;8.69;62.22
7268;BME280;3675;43.276;27.962;2024-01-06T02:45:04;97908.59;;;8.68;62.19
7268;BME280;3675;43.276;27.962;2024-01-06T02:47:36;97914.47;;;8.71;62.31
7268;BME280;3675;43.276;27.962;2024-01-06T02:50:08;97919.63;;;8.71;62.36
7268;BME280;3675;43.276;27.962;2024-01-06T02:52:42;97918.13;;;8.66;62.62
7268;BME280;3675;43.276;27.962;2024-01-06T02:55:14;97919.69;;;8.70;62.13
7268;BME280;3675;43.276;27.962;2024-01-06T02:57:45;97916.44;;;8.65;62.59
7268;BME280;3675;43.276;27.962;2024-01-06T03:00:17;97920.75;;;8.64;62.33
7268;BME280;3675;43.276;27.962;2024-01-06T03:02:49;97912.25;;;8.62;62.18
7268;BME280;3675;43.276;27.962;2024-01-06T03:05:21;97909.06;;;8.55;62.16
7268;BME280;3675;43.276;27.962;2024-01-06T03:07:55;97910.06;;;8.53;62.24
7268;BME280;3675;43.276;27.962;2024-01-06T03:10:26;97912.69;;;8.51;62.41
7268;BME280;3675;43.276;27.962;2024-01-06T03:12:57;97919.00;;;8.44;62.82
7268;BME280;3675;43.276;27.962;2024-01-06T03:15:29;97909.56;;;8.43;62.98
7268;BME280;3675;43.276;27.962;2024-01-06T03:18:00;97897.84;;;8.36;63.32
7268;BME280;3675;43.276;27.962;2024-01-06T03:20:32;97906.63;;;8.31;63.88
7268;BME280;3675;43.276;27.962;2024-01-06T03:23:06;97900.16;;;8.19;64.74
7268;BME280;3675;43.276;27.962;2024-01-06T03:25:38;97897.00;;;8.12;65.15
7268;BME280;3675;43.276;27.962;2024-01-06T03:28:09;97893.75;;;8.07;65.85
7268;BME280;3675;43.276;27.962;2024-01-06T03:30:41;97881.38;;;7.95;66.50
7268;BME280;3675;43.276;27.962;2024-01-06T03:33:12;97882.31;;;7.93;66.95
7268;BME280;3675;43.276;27.962;2024-01-06T03:35:44;97877.81;;;7.98;67.55
7268;BME280;3675;43.276;27.962;2024-01-06T03:38:17;97868.00;;;7.86;68.32
7268;BME280;3675;43.276;27.962;2024-01-06T03:40:48;97870.56;;;7.86;68.40
7268;BME280;3675;43.276;27.962;2024-01-06T03:43:19;97863.81;;;7.83;68.77
7268;BME280;3675;43.276;27.962;2024-01-06T03:45:51;97863.63;;;7.88;68.20
7268;BME280;3675;43.276;27.962;2024-01-06T03:48:23;97868.59;;;7.92;68.30
7268;BME280;3675;43.276;27.962;2024-01-06T03:50:55;97863.34;;;7.95;67.76
7268;BME280;3675;43.276;27.962;2024-01-06T03:53:29;97864.84;;;8.01;67.50
7268;BME280;3675;43.276;27.962;2024-01-06T03:56:00;97860.63;;;7.98;67.63
7268;BME280;3675;43.276;27.962;2024-01-06T03:58:32;97853.47;;;8.06;67.68
7268;BME280;3675;43.276;27.962;2024-01-06T04:01:03;97856.75;;;8.10;67.81
7268;BME280;3675;43.276;27.962;2024-01-06T04:03:34;97860.06;;;8.13;68.32
7268;BME280;3675;43.276;27.962;2024-01-06T04:06:06;97856.34;;;8.21;68.79
7268;BME280;3675;43.276;27.962;2024-01-06T04:08:44;97843.22;;;8.27;68.67
7268;BME280;3675;43.276;27.962;2024-01-06T04:11:15;97853.31;;;8.33;68.08
7268;BME280;3675;43.276;27.962;2024-01-06T04:13:47;97847.97;;;8.37;67.92
7268;BME280;3675;43.276;27.962;2024-01-06T04:16:19;97857.34;;;8.40;67.75
7268;BME280;3675;43.276;27.962;2024-01-06T04:18:50;97846.09;;;8.41;68.05
7268;BME280;3675;43.276;27.962;2024-01-06T04:21:22;97842.63;;;8.42;68.21
7268;BME280;3675;43.276;27.962;2024-01-06T04:23:56;97844.25;;;8.44;68.45
7268;BME280;3675;43.276;27.962;2024-01-06T04:26:28;97837.44;;;8.43;68.86
7268;BME280;3675;43.276;27.962;2024-01-06T04:28:59;97845.69;;;8.51;68.96
7268;BME280;3675;43.276;27.962;2024-01-06T04:31:30;97855.34;;;8.46;69.06
7268;BME280;3675;43.276;27.962;2024-01-06T04:34:02;97846.56;;;8.50;68.62
7268;BME280;3675;43.276;27.962;2024-01-06T04:36:33;97842.78;;;8.59;68.37
7268;BME280;3675;43.276;27.962;2024-01-06T04:39:07;97839.50;;;8.55;68.26
7268;BME280;3675;43.276;27.962;2024-01-06T04:41:41;97847.94;;;8.59;68.24
7268;BME280;3675;43.276;27.962;2024-01-06T04:44:12;97846.16;;;8.61;68.16
7268;BME280;3675;43.276;27.962;2024-01-06T04:46:44;97841.03;;;8.60;68.35
7268;BME280;3675;43.276;27.962;2024-01-06T04:49:15;97853.03;;;8.61;68.34
7268;BME280;3675;43.276;27.962;2024-01-06T04:51:47;97848.97;;;8.55;68.45
7268;BME280;3675;43.276;27.962;2024-01-06T04:54:22;97847.03;;;8.60;68.05
7268;BME280;3675;43.276;27.962;2024-01-06T04:56:53;97848.03;;;8.57;68.25
7268;BME280;3675;43.276;27.962;2024-01-06T04:59:25;97850.00;;;8.51;68.47
7268;BME280;3675;43.276;27.962;2024-01-06T05:01:57;97860.25;;;8.52;68.68
7268;BME280;3675;43.276;27.962;2024-01-06T05:04:28;97854.25;;;8.52;68.67
7268;BME280;3675;43.276;27.962;2024-01-06T05:07:00;97853.53;;;8.48;68.56
7268;BME280;3675;43.276;27.962;2024-01-06T05:09:35;97859.34;;;8.53;68.82
7268;BME280;3675;43.276;27.962;2024-01-06T05:12:07;97863.66;;;8.53;68.88
7268;BME280;3675;43.276;27.962;2024-01-06T05:14:39;97868.75;;;8.54;69.19
7268;BME280;3675;43.276;27.962;2024-01-06T05:17:10;97871.50;;;8.50;69.88
7268;BME280;3675;43.276;27.962;2024-01-06T05:19:42;97868.03;;;8.51;70.12
7268;BME280;3675;43.276;27.962;2024-01-06T05:22:13;97876.97;;;8.42;70.43
7268;BME280;3675;43.276;27.962;2024-01-06T05:24:47;97862.66;;;8.35;71.09
7268;BME280;3675;43.276;27.962;2024-01-06T05:27:21;97866.31;;;8.30;71.78
7268;BME280;3675;43.276;27.962;2024-01-06T05:29:52;97865.47;;;8.29;71.29
7268;BME280;3675;43.276;27.962;2024-01-06T05:32:24;97875.88;;;8.26;71.32
7268;BME280;3675;43.276;27.962;2024-01-06T05:34:55;97868.50;;;8.17;71.56
7268;BME280;3675;43.276;27.962;2024-01-06T05:37:27;97878.81;;;8.17;71.62
7268;BME280;3675;43.276;27.962;2024-01-06T05:40:01;97877.00;;;8.19;72.04
7268;BME280;3675;43.276;27.962;2024-01-06T05:42:33;97871.66;;;8.24;71.94
7268;BME280;3675;43.276;27.962;2024-01-06T05:45:06;97882.03;;;8.22;72.13
7268;BME280;3675;43.276;27.962;2024-01-06T05:47:37;97873.34;;;8.25;72.02
7268;BME280;3675;43.276;27.962;2024-01-06T05:50:10;97869.72;;;8.30;72.09
7268;BME280;3675;43.276;27.962;2024-01-06T05:52:41;97868.84;;;8.31;72.24
7268;BME280;3675;43.276;27.962;2024-01-06T05:55:18;97859.44;;;8.29;72.80
7268;BME280;3675;43.276;27.962;2024-01-06T05:57:50;97858.22;;;8.39;72.74
7268;BME280;3675;43.276;27.962;2024-01-06T06:00:22;97865.06;;;8.40;72.96
7268;BME280;3675;43.276;27.962;2024-01-06T06:02:53;97856.19;;;8.47;73.63
7268;BME280;3675;43.276;27.962;2024-01-06T06:05:25;97851.53;;;8.55;73.18
7268;BME280;3675;43.276;27.962;2024-01-06T06:07:57;97862.63;;;8.57;73.74
7268;BME280;3675;43.276;27.962;2024-01-06T06:10:31;97865.09;;;8.60;73.58
7268;BME280;3675;43.276;27.962;2024-01-06T06:13:20;97852.16;;;8.62;73.43
7268;BME280;3675;43.276;27.962;2024-01-06T06:15:55;97853.56;;;8.69;73.03
7268;BME280;3675;43.276;27.962;2024-01-06T06:18:27;97853.44;;;8.72;73.34
7268;BME280;3675;43.276;27.962;2024-01-06T06:20:58;97856.59;;;8.78;73.65
7268;BME280;3675;43.276;27.962;2024-01-06T06:23:31;97860.59;;;8.85;73.59
7268;BME280;3675;43.276;27.962;2024-01-06T06:26:06;97856.03;;;8.92;73.77
7268;BME280;3675;43.276;27.962;2024-01-06T06:28:40;97848.25;;;8.93;73.74
7268;BME280;3675;43.276;27.962;2024-01-06T06:31:11;97851.56;;;8.95;73.88
7268;BME280;3675;43.276;27.962;2024-01-06T06:33:43;97856.53;;;9.00;73.94
7268;BME280;3675;43.276;27.962;2024-01-06T06:36:15;97858.28;;;8.99;73.92
7268;BME280;3675;43.276;27.962;2024-01-06T06:38:47;97853.13;;;8.99;73.98
7268;BME280;3675;43.276;27.962;2024-01-06T06:41:21;97847.72;;;9.06;73.97
7268;BME280;3675;43.276;27.962;2024-01-06T06:43:53;97849.19;;;9.11;74.16
7268;BME280;3675;43.276;27.962;2024-01-06T06:46:25;97844.59;;;9.18;73.92
7268;BME280;3675;43.276;27.962;2024-01-06T06:48:56;97850.41;;;9.23;73.75
7268;BME280;3675;43.276;27.962;2024-01-06T06:51:30;97842.59;;;9.24;73.78
7268;BME280;3675;43.276;27.962;2024-01-06T06:54:02;97837.28;;;9.27;73.63
7268;BME280;3675;43.276;27.962;2024-01-06T06:56:37;97838.69;;;9.34;73.31
7268;BME280;3675;43.276;27.962;2024-01-06T06:59:08;97848.25;;;9.32;73.51
7268;BME280;3675;43.276;27.962;2024-01-06T07:01:42;97854.25;;;9.33;73.70
7268;BME280;3675;43.276;27.962;2024-01-06T07:04:14;97851.34;;;9.40;73.99
7268;BME280;3675;43.276;27.962;2024-01-06T07:06:45;97847.03;;;9.41;73.97
7268;BME280;3675;43.276;27.962;2024-01-06T07:09:17;97853.66;;;9.46;74.09
7268;BME280;3675;43.276;27.962;2024-01-06T07:11:54;97850.88;;;9.51;73.82
7268;BME280;3675;43.276;27.962;2024-01-06T07:14:25;97843.94;;;9.52;73.84
7268;BME280;3675;43.276;27.962;2024-01-06T07:16:57;97845.41;;;9.57;73.95
7268;BME280;3675;43.276;27.962;2024-01-06T07:19:29;97840.13;;;9.60;74.02
7268;BME280;3675;43.276;27.962;2024-01-06T07:22:01;97844.09;;;9.67;73.81
7268;BME280;3675;43.276;27.962;2024-01-06T07:24:34;97832.78;;;9.70;73.83
7268;BME280;3675;43.276;27.962;2024-01-06T07:27:08;97835.38;;;9.70;73.95
7268;BME280;3675;43.276;27.962;2024-01-06T07:29:40;97822.66;;;9.65;74.39
7268;BME280;3675;43.276;27.962;2024-01-06T07:32:11;97832.59;;;9.74;74.47
7268;BME280;3675;43.276;27.962;2024-01-06T07:34:43;97821.28;;;9.77;74.70
7268;BME280;3675;43.276;27.962;2024-01-06T07:37:15;97814.94;;;9.84;74.55
7268;BME280;3675;43.276;27.962;2024-01-06T07:39:47;97816.41;;;9.89;74.47
7268;BME280;3675;43.276;27.962;2024-01-06T07:42:21;97816.41;;;9.89;74.86
7268;BME280;3675;43.276;27.962;2024-01-06T07:44:53;97817.25;;;9.90;74.79
7268;BME280;3675;43.276;27.962;2024-01-06T07:47:24;97822.25;;;9.93;74.89
7268;BME280;3675;43.276;27.962;2024-01-06T07:49:56;97813.38;;;9.99;75.08
7268;BME280;3675;43.276;27.962;2024-01-06T07:52:28;97813.91;;;10.05;75.09
7268;BME280;3675;43.276;27.962;2024-01-06T07:55:01;97813.06;;;10.05;74.94
7268;BME280;3675;43.276;27.962;2024-01-06T07:57:35;97821.59;;;10.07;75.27
7268;BME280;3675;43.276;27.962;2024-01-06T08:00:08;97811.34;;;10.05;75.63
7268;BME280;3675;43.276;27.962;2024-01-06T08:02:43;97803.47;;;10.08;75.78
7268;BME280;3675;43.276;27.962;2024-01-06T08:05:17;97807.69;;;10.09;75.38
7268;BME280;3675;43.276;27.962;2024-01-06T08:07:50;97811.97;;;10.10;75.95
7268;BME280;3675;43.276;27.962;2024-01-06T08:10:22;97798.13;;;10.11;75.70
7268;BME280;3675;43.276;27.962;2024-01-06T08:12:56;97801.22;;;10.19;75.57
7268;BME280;3675;43.276;27.962;2024-01-06T08:15:28;97803.66;;;10.22;75.40
7268;BME280;3675;43.276;27.962;2024-01-06T08:18:00;97797.44;;;10.26;75.48
7268;BME280;3675;43.276;27.962;2024-01-06T08:20:32;97799.03;;;10.29;75.21
7268;BME280;3675;43.276;27.962;2024-01-06T08:23:03;97794.41;;;10.35;74.99
7268;BME280;3675;43.276;27.962;2024-01-06T08:25:35;97788.94;;;10.42;74.62
7268;BME280;3675;43.276;27.962;2024-01-06T08:28:09;97801.19;;;10.55;74.07
7268;BME280;3675;43.276;27.962;2024-01-06T08:30:40;97794.72;;;10.64;73.92
7268;BME280;3675;43.276;27.962;2024-01-06T08:33:12;97795.84;;;10.75;73.61
7268;BME280;3675;43.276;27.962;2024-01-06T08:35:44;97798.13;;;10.81;73.16
7268;BME280;3675;43.276;27.962;2024-01-06T08:38:16;97795.00;;;10.92;72.92
7268;BME280;3675;43.276;27.962;2024-01-06T08:40:50;97785.84;;;11.02;72.65
7268;BME280;3675;43.276;27.962;2024-01-06T08:43:24;97780.28;;;11.10;72.31
7268;BME280;3675;43.276;27.962;2024-01-06T08:45:56;97776.75;;;11.28;71.94
7268;BME280;3675;43.276;27.962;2024-01-06T08:48:28;97786.19;;;11.45;71.20
7268;BME280;3675;43.276;27.962;2024-01-06T08:51:03;97792.03;;;11.64;70.68
7268;BME280;3675;43.276;27.962;2024-01-06T08:53:34;97780.63;;;11.68;70.75
7268;BME280;3675;43.276;27.962;2024-01-06T08:56:06;97778.44;;;11.60;70.63
7268;BME280;3675;43.276;27.962;2024-01-06T08:58:41;97776.44;;;11.65;70.76
7268;BME280;3675;43.276;27.962;2024-01-06T09:01:12;97769.09;;;11.58;71.00
7268;BME280;3675;43.276;27.962;2024-01-06T09:03:44;97760.97;;;11.64;70.49
7268;BME280;3675;43.276;27.962;2024-01-06T09:06:18;97760.66;;;11.70;70.31
7268;BME280;3675;43.276;27.962;2024-01-06T09:08:50;97748.50;;;11.72;69.93
7268;BME280;3675;43.276;27.962;2024-01-06T09:11:21;97751.69;;;11.60;70.06
7268;BME280;3675;43.276;27.962;2024-01-06T09:13:55;97747.09;;;11.65;70.35
7268;BME280;3675;43.276;27.962;2024-01-06T09:16:27;97748.53;;;11.86;70.01
7268;BME280;3675;43.276;27.962;2024-01-06T09:18:59;97748.72;;;11.99;69.37
7268;BME280;3675;43.276;27.962;2024-01-06T09:21:31;97747.03;;;11.98;69.27
7268;BME280;3675;43.276;27.962;2024-01-06T09:24:04;97744.84;;;12.06;69.49
7268;BME280;3675;43.276;27.962;2024-01-06T09:26:36;97741.06;;;12.41;68.17
7268;BME280;3675;43.276;27.962;2024-01-06T09:29:11;97730.59;;;12.73;66.90
7268;BME280;3675;43.276;27.962;2024-01-06T09:31:43;97729.75;;;12.72;67.00
7268;BME280;3675;43.276;27.962;2024-01-06T09:34:15;97722.72;;;12.88;66.81
7268;BME280;3675;43.276;27.962;2024-01-06T09:36:46;97713.25;;;12.73;66.72
7268;BME280;3675;43.276;27.962;2024-01-06T09:39:18;97715.03;;;12.73;66.99
7268;BME280;3675;43.276;27.962;2024-01-06T09:41:50;97712.06;;;12.65;66.63
7268;BME280;3675;43.276;27.962;2024-01-06T09:44:24;97716.38;;;12.50;67.34
7268;BME280;3675;43.276;27.962;2024-01-06T09:46:58;97716.56;;;12.47;67.88
7268;BME280;3675;43.276;27.962;2024-01-06T09:49:32;97699.09;;;12.35;67.88
7268;BME280;3675;43.276;27.962;2024-01-06T09:52:13;97687.09;;;12.34;67.87
7268;BME280;3675;43.276;27.962;2024-01-06T09:54:51;97682.47;;;12.53;67.26
7268;BME280;3675;43.276;27.962;2024-01-06T09:57:24;97676.47;;;12.67;66.82
7268;BME280;3675;43.276;27.962;2024-01-06T09:59:59;97677.75;;;12.59;67.15
7268;BME280;3675;43.276;27.962;2024-01-06T10:02:38;97681.63;;;12.52;67.60
7268;BME280;3675;43.276;27.962;2024-01-06T10:05:13;97667.19;;;12.48;67.49
7268;BME280;3675;43.276;27.962;2024-01-06T10:07:44;97663.19;;;12.57;67.14
7268;BME280;3675;43.276;27.962;2024-01-06T10:10:16;97671.63;;;12.46;67.29
7268;BME280;3675;43.276;27.962;2024-01-06T10:12:48;97661.63;;;12.40;67.47
7268;BME280;3675;43.276;27.962;2024-01-06T10:15:26;97673.41;;;12.46;67.13
7268;BME280;3675;43.276;27.962;2024-01-06T10:17:58;97667.41;;;12.74;66.85
7268;BME280;3675;43.276;27.962;2024-01-06T10:20:31;97651.81;;;13.16;66.43
7268;BME280;3675;43.276;27.962;2024-01-06T10:23:05;97648.81;;;13.63;64.02
7268;BME280;3675;43.276;27.962;2024-01-06T10:25:37;97645.16;;;13.80;63.69
7268;BME280;3675;43.276;27.962;2024-01-06T10:28:12;97642.16;;;13.59;63.34
7268;BME280;3675;43.276;27.962;2024-01-06T10:30:47;97641.13;;;13.62;63.58
7268;BME280;3675;43.276;27.962;2024-01-06T10:33:20;97646.91;;;13.79;63.23
7268;BME280;3675;43.276;27.962;2024-01-06T10:35:52;97635.63;;;13.66;63.34
7268;BME280;3675;43.276;27.962;2024-01-06T10:38:26;97628.81;;;13.51;64.06
7268;BME280;3675;43.276;27.962;2024-01-06T10:40:58;97625.94;;;13.56;64.39
7268;BME280;3675;43.276;27.962;2024-01-06T10:43:33;97624.75;;;13.47;64.86
7268;BME280;3675;43.276;27.962;2024-01-06T10:46:09;97616.44;;;13.28;64.95
7268;BME280;3675;43.276;27.962;2024-01-06T10:48:44;97614.03;;;13.39;64.85
7268;BME280;3675;43.276;27.962;2024-01-06T10:51:18;97619.28;;;13.11;65.30
7268;BME280;3675;43.276;27.962;2024-01-06T10:53:52;97615.28;;;13.05;65.93
7268;BME280;3675;43.276;27.962;2024-01-06T10:56:25;97613.81;;;13.01;65.93
7268;BME280;3675;43.276;27.962;2024-01-06T10:58:57;97606.59;;;12.92;66.22
7268;BME280;3675;43.276;27.962;2024-01-06T11:01:33;97617.28;;;12.87;66.45
7268;BME280;3675;43.276;27.962;2024-01-06T11:04:05;97613.44;;;12.93;66.62
7268;BME280;3675;43.276;27.962;2024-01-06T11:06:39;97612.25;;;12.70;67.02
7268;BME280;3675;43.276;27.962;2024-01-06T11:09:16;97607.47;;;12.64;66.92
7268;BME280;3675;43.276;27.962;2024-01-06T11:11:56;97595.59;;;12.46;67.76
7268;BME280;3675;43.276;27.962;2024-01-06T11:14:29;97594.84;;;12.44;67.95
7268;BME280;3675;43.276;27.962;2024-01-06T11:17:06;97589.75;;;12.28;68.48
7268;BME280;3675;43.276;27.962;2024-01-06T11:19:44;97594.94;;;12.14;69.04
7268;BME280;3675;43.276;27.962;2024-01-06T11:22:27;97602.06;;;12.10;69.20
7268;BME280;3675;43.276;27.962;2024-01-06T11:25:05;97603.09;;;12.08;69.17
7268;BME280;3675;43.276;27.962;2024-01-06T11:27:37;97601.50;;;12.20;68.86
7268;BME280;3675;43.276;27.962;2024-01-06T11:30:19;97610.69;;;12.25;68.34
7268;BME280;3675;43.276;27.962;2024-01-06T11:32:56;97607.06;;;12.28;68.54
7268;BME280;3675;43.276;27.962;2024-01-06T11:35:30;97609.66;;;12.28;68.75
7268;BME280;3675;43.276;27.962;2024-01-06T11:38:02;97597.25;;;12.19;68.89
7268;BME280;3675;43.276;27.962;2024-01-06T11:40:40;97588.00;;;12.14;69.15
7268;BME280;3675;43.276;27.962;2024-01-06T11:43:12;97583.94;;;12.25;68.65
7268;BME280;3675;43.276;27.962;2024-01-06T11:45:45;97584.84;;;12.24;68.55
7268;BME280;3675;43.276;27.962;2024-01-06T11:48:24;97589.13;;;12.25;68.69
7268;BME280;3675;43.276;27.962;2024-01-06T11:50:59;97591.78;;;12.23;68.61
7268;BME280;3675;43.276;27.962;2024-01-06T11:53:31;97593.09;;;12.30;68.47
7268;BME280;3675;43.276;27.962;2024-01-06T11:56:09;97587.16;;;12.28;68.19
7268;BME280;3675;43.276;27.962;2024-01-06T11:58:41;97587.44;;;12.24;68.22
7268;BME280;3675;43.276;27.962;2024-01-06T12:01:15;97583.09;;;12.24;68.11
7268;BME280;3675;43.276;27.962;2024-01-06T12:03:53;97581.59;;;12.06;68.61
7268;BME280;3675;43.276;27.962;2024-01-06T12:06:26;97576.41;;;12.06;68.81
7268;BME280;3675;43.276;27.962;2024-01-06T12:09:04;97580.56;;;12.08;68.97
7268;BME280;3675;43.276;27.962;2024-01-06T12:11:36;97574.00;;;12.17;68.81
7268;BME280;3675;43.276;27.962;2024-01-06T12:14:11;97576.50;;;12.19;68.99
7268;BME280;3675;43.276;27.962;2024-01-06T12:16:44;97579.13;;;12.33;68.52
7268;BME280;3675;43.276;27.962;2024-01-06T12:19:19;97583.00;;;12.40;68.35
7268;BME280;3675;43.276;27.962;2024-01-06T12:21:51;97574.94;;;12.44;68.03
7268;BME280;3675;43.276;27.962;2024-01-06T12:24:23;97584.88;;;12.52;67.91
7268;BME280;3675;43.276;27.962;2024-01-06T12:26:56;97583.41;;;12.48;67.71
7268;BME280;3675;43.276;27.962;2024-01-06T12:29:28;97565.97;;;12.50;67.49
7268;BME280;3675;43.276;27.962;2024-01-06T12:32:03;97565.88;;;12.37;68.10
7268;BME280;3675;43.276;27.962;2024-01-06T12:34:38;97574.94;;;12.44;67.87
7268;BME280;3675;43.276;27.962;2024-01-06T12:37:10;97567.34;;;12.41;67.88
7268;BME280;3675;43.276;27.962;2024-01-06T12:39:49;97566.31;;;12.44;68.11
7268;BME280;3675;43.276;27.962;2024-01-06T12:42:21;97570.03;;;12.40;68.38
7268;BME280;3675;43.276;27.962;2024-01-06T12:44:53;97561.34;;;12.41;68.46
7268;BME280;3675;43.276;27.962;2024-01-06T12:47:25;97567.56;;;12.38;68.60
7268;BME280;3675;43.276;27.962;2024-01-06T12:49:59;97561.13;;;12.44;68.56
7268;BME280;3675;43.276;27.962;2024-01-06T12:52:32;97556.91;;;12.43;68.24
7268;BME280;3675;43.276;27.962;2024-01-06T12:55:07;97553.84;;;12.50;68.12
7268;BME280;3675;43.276;27.962;2024-01-06T12:57:39;97554.88;;;12.48;68.16
7268;BME280;3675;43.276;27.962;2024-01-06T13:00:12;97554.19;;;12.44;68.17
7268;BME280;3675;43.276;27.962;2024-01-06T13:02:44;97544.31;;;12.37;68.49
7268;BME280;3675;43.276;27.962;2024-01-06T13:05:18;97535.69;;;12.50;68.18
7268;BME280;3675;43.276;27.962;2024-01-06T13:07:50;97537.06;;;12.56;67.96
7268;BME280;3675;43.276;27.962;2024-01-06T13:10:22;97540.66;;;12.53;67.94
7268;BME280;3675;43.276;27.962;2024-01-06T13:12:53;97541.16;;;12.46;67.79
7268;BME280;3675;43.276;27.962;2024-01-06T13:15:25;97537.44;;;12.50;67.68
7268;BME280;3675;43.276;27.962;2024-01-06T13:17:56;97536.31;;;12.40;67.63
7268;BME280;3675;43.276;27.962;2024-01-06T13:20:31;97531.53;;;12.34;67.93
7268;BME280;3675;43.276;27.962;2024-01-06T13:23:03;97532.47;;;12.33;68.02
7268;BME280;3675;43.276;27.962;2024-01-06T13:25:35;97534.75;;;12.23;67.95
7268;BME280;3675;43.276;27.962;2024-01-06T13:28:07;97536.44;;;12.24;68.21
7268;BME280;3675;43.276;27.962;2024-01-06T13:30:39;97533.38;;;12.18;68.21
7268;BME280;3675;43.276;27.962;2024-01-06T13:33:11;97524.13;;;12.28;68.24
7268;BME280;3675;43.276;27.962;2024-01-06T13:35:46;97524.47;;;12.36;67.55
7268;BME280;3675;43.276;27.962;2024-01-06T13:38:19;97537.16;;;12.26;67.80
7268;BME280;3675;43.276;27.962;2024-01-06T13:40:50;97531.91;;;12.28;67.54
7268;BME280;3675;43.276;27.962;2024-01-06T13:43:24;97530.97;;;12.29;67.14
7268;BME280;3675;43.276;27.962;2024-01-06T13:45:55;97527.75;;;12.25;67.05